createdAt,value
2023-05-19T00:00:53.450Z,959.7570
2023-05-19T00:01:55.244Z,959.7577
2023-05-19T00:02:57.081Z,959.7585
2023-05-19T00:03:58.616Z,959.7577
2023-05-19T00:05:00.394Z,959.7754
2023-05-19T00:06:02.161Z,959.7700
2023-05-19T00:07:03.814Z,959.7646
2023-05-19T00:08:05.533Z,959.7639
2023-05-19T00:09:07.275Z,959.7692
2023-05-19T00:10:09.004Z,959.7562
2023-05-19T00:11:10.729Z,959.7354
2023-05-19T00:12:12.420Z,959.7231
2023-05-19T00:13:14.181Z,959.7177
2023-05-19T00:14:15.871Z,959.7123
2023-05-19T00:15:17.618Z,959.7146
2023-05-19T00:16:19.429Z,959.7123
2023-05-19T00:17:21.048Z,959.7000
2023-05-19T00:18:22.861Z,959.6838
2023-05-19T00:19:25.026Z,959.6785
2023-05-19T00:20:26.239Z,959.6630
2023-05-19T00:21:27.974Z,959.6500
2023-05-19T00:22:29.685Z,959.6423
2023-05-19T00:23:31.417Z,959.6208
2023-05-19T00:24:33.152Z,959.6077
2023-05-19T00:25:34.873Z,959.5885
2023-05-19T00:26:36.583Z,959.5808
2023-05-19T00:27:38.349Z,959.5777
2023-05-19T00:28:40.093Z,959.5685
2023-05-19T00:29:41.780Z,959.5700
2023-05-19T00:30:43.518Z,959.5754
2023-05-19T00:31:45.292Z,959.5700
2023-05-19T00:32:46.970Z,959.5677
2023-05-19T00:33:48.705Z,959.5662
2023-05-19T00:34:50.413Z,959.5577
2023-05-19T00:35:52.143Z,959.5492
2023-05-19T00:36:53.849Z,959.5469
2023-05-19T00:37:55.613Z,959.5361
2023-05-19T00:38:57.320Z,959.5270
2023-05-19T00:39:59.043Z,959.5192
2023-05-19T00:41:00.770Z,959.5123
2023-05-19T00:42:02.475Z,959.5062
2023-05-19T00:43:04.204Z,959.4938
2023-05-19T00:44:05.964Z,959.4800
2023-05-19T00:45:07.684Z,959.4654
2023-05-19T00:46:09.412Z,959.4600
2023-05-19T00:47:11.142Z,959.4547
2023-05-19T00:48:12.853Z,959.4470
2023-05-19T00:49:14.570Z,959.4431
2023-05-19T00:50:16.312Z,959.4377
2023-05-19T00:51:18.033Z,959.4292
2023-05-19T00:52:19.740Z,959.4185
2023-05-19T00:53:21.480Z,959.4177
2023-05-19T00:54:23.200Z,959.4054
2023-05-19T00:55:24.930Z,959.3970
2023-05-19T00:56:26.663Z,959.3808
2023-05-19T00:57:28.370Z,959.3862
2023-05-19T00:58:30.119Z,959.3746
2023-05-19T00:59:31.851Z,959.3638
2023-05-19T01:00:33.870Z,959.3546
2023-05-19T01:01:35.381Z,959.3446
2023-05-19T01:02:37.060Z,959.3454
2023-05-19T01:03:38.793Z,959.3423
2023-05-19T01:04:40.470Z,959.3384
2023-05-19T01:05:42.200Z,959.3347
2023-05-19T01:06:43.917Z,959.3262
2023-05-19T01:07:45.650Z,959.3138
2023-05-19T01:08:47.361Z,959.3046
2023-05-19T01:09:49.101Z,959.3015
2023-05-19T01:10:50.825Z,959.2923
2023-05-19T01:11:52.545Z,959.3008
2023-05-19T01:12:54.259Z,959.2961
2023-05-19T01:13:56.015Z,959.2938
2023-05-19T01:14:57.746Z,959.2953
2023-05-19T01:15:59.471Z,959.2977
2023-05-19T01:17:01.189Z,959.2961
2023-05-19T01:18:02.952Z,959.2992
2023-05-19T01:19:04.647Z,959.3062
2023-05-19T01:20:06.427Z,959.3023
2023-05-19T01:21:08.097Z,959.3015
2023-05-19T01:22:09.798Z,959.3100
2023-05-19T01:23:11.528Z,959.3254
2023-05-19T01:24:13.274Z,959.3377
2023-05-19T01:25:15.016Z,959.3416
2023-05-19T01:26:16.724Z,959.3492
2023-05-19T01:27:18.430Z,959.3477
2023-05-19T01:28:20.168Z,959.3477
2023-05-19T01:29:21.873Z,959.3492
2023-05-19T01:30:23.657Z,959.3508
2023-05-19T01:31:25.358Z,959.3477
2023-05-19T01:32:27.135Z,959.3531
2023-05-19T01:33:28.788Z,959.3585
2023-05-19T01:34:30.512Z,959.3730
2023-05-19T01:35:32.226Z,959.3831
2023-05-19T01:36:33.963Z,959.3877
2023-05-19T01:37:35.668Z,959.3862
2023-05-19T01:38:37.423Z,959.3823
2023-05-19T01:39:39.111Z,959.3730
2023-05-19T01:40:40.880Z,959.3723
2023-05-19T01:41:42.602Z,959.3661
2023-05-19T01:42:44.296Z,959.3592
2023-05-19T01:43:46.049Z,959.3615
2023-05-19T01:44:47.767Z,959.3569
2023-05-19T01:45:49.525Z,959.3623
2023-05-19T01:46:51.198Z,959.3654
2023-05-19T01:47:52.970Z,959.3615
2023-05-19T01:48:54.677Z,959.3531
2023-05-19T01:49:56.384Z,959.3462
2023-05-19T01:50:58.145Z,959.3369
2023-05-19T01:51:59.830Z,959.3477
2023-05-19T01:53:01.564Z,959.3523
2023-05-19T01:54:03.317Z,959.3608
2023-05-19T01:55:05.026Z,959.3654
2023-05-19T01:56:06.897Z,959.3730
2023-05-19T01:57:08.490Z,959.3785
2023-05-19T01:58:10.240Z,959.3785
2023-05-19T01:59:11.924Z,959.3738
2023-05-19T02:00:13.671Z,959.3646
2023-05-19T02:01:15.410Z,959.3685
2023-05-19T02:02:17.121Z,959.3754
2023-05-19T02:03:18.820Z,959.3915
2023-05-19T02:04:20.590Z,959.3985
2023-05-19T02:05:22.292Z,959.3985
2023-05-19T02:06:24.048Z,959.3969
2023-05-19T02:07:25.733Z,959.3792
2023-05-19T02:08:27.474Z,959.3708
2023-05-19T02:09:29.189Z,959.3661
2023-05-19T02:10:31.096Z,959.3630
2023-05-19T02:11:32.671Z,959.3746
2023-05-19T02:12:34.350Z,959.3615
2023-05-19T02:13:36.107Z,959.3593
2023-05-19T02:14:37.798Z,959.3484
2023-05-19T02:15:39.587Z,959.3423
2023-05-19T02:16:41.262Z,959.3400
2023-05-19T02:17:42.989Z,959.3377
2023-05-19T02:18:44.710Z,959.3461
2023-05-19T02:19:46.425Z,959.3362
2023-05-19T02:20:48.161Z,959.3392
2023-05-19T02:21:49.899Z,959.3323
2023-05-19T02:22:51.592Z,959.3315
2023-05-19T02:23:53.334Z,959.3215
2023-05-19T02:24:55.034Z,959.3123
2023-05-19T02:25:56.766Z,959.3015
2023-05-19T02:26:58.502Z,959.2885
2023-05-19T02:28:00.213Z,959.2869
2023-05-19T02:29:01.975Z,959.2739
2023-05-19T02:30:03.663Z,959.2608
2023-05-19T02:31:05.405Z,959.2492
2023-05-19T02:32:07.185Z,959.2277
2023-05-19T02:33:08.900Z,959.2146
2023-05-19T02:34:10.564Z,959.2077
2023-05-19T02:35:12.314Z,959.1862
2023-05-19T02:36:14.020Z,959.1915
2023-05-19T02:37:15.782Z,959.1808
2023-05-19T02:38:17.483Z,959.1746
2023-05-19T02:39:19.203Z,959.1685
2023-05-19T02:40:20.930Z,959.1531
2023-05-19T02:41:22.655Z,959.1354
2023-05-19T02:42:24.403Z,959.1238
2023-05-19T02:43:26.102Z,959.1161
2023-05-19T02:44:27.810Z,959.1115
2023-05-19T02:45:29.535Z,959.1069
2023-05-19T02:46:31.324Z,959.1146
2023-05-19T02:47:34.717Z,959.1023
2023-05-19T02:48:34.707Z,959.1085
2023-05-19T02:49:36.487Z,959.1038
2023-05-19T02:50:38.174Z,959.0969
2023-05-19T02:51:39.907Z,959.1015
2023-05-19T02:52:41.610Z,959.1100
2023-05-19T02:53:43.338Z,959.1154
2023-05-19T02:54:45.092Z,959.1192
2023-05-19T02:55:46.785Z,959.1138
2023-05-19T02:56:48.506Z,959.1246
2023-05-19T02:57:50.252Z,959.1262
2023-05-19T02:58:51.958Z,959.1238
2023-05-19T02:59:53.680Z,959.1292
2023-05-19T03:00:55.430Z,959.1285
2023-05-19T03:01:57.188Z,959.1208
2023-05-19T03:02:58.905Z,959.1238
2023-05-19T03:04:00.729Z,959.1292
2023-05-19T03:05:02.319Z,959.1208
2023-05-19T03:06:04.020Z,959.0992
2023-05-19T03:07:05.748Z,959.0854
2023-05-19T03:08:07.495Z,959.0777
2023-05-19T03:09:09.191Z,959.0692
2023-05-19T03:10:10.912Z,959.0530
2023-05-19T03:11:12.652Z,959.0485
2023-05-19T03:12:14.359Z,959.0408
2023-05-19T03:13:16.111Z,959.0485
2023-05-19T03:14:17.821Z,959.0446
2023-05-19T03:15:19.522Z,959.0339
2023-05-19T03:16:21.331Z,959.0492
2023-05-19T03:17:23.062Z,959.0346
2023-05-19T03:18:24.838Z,959.0453
2023-05-19T03:19:26.662Z,959.0453
2023-05-19T03:20:28.145Z,959.0392
2023-05-19T03:21:29.872Z,959.0339
2023-05-19T03:22:31.622Z,959.0300
2023-05-19T03:23:33.345Z,959.0316
2023-05-19T03:24:35.041Z,959.0292
2023-05-19T03:25:36.795Z,959.0354
2023-05-19T03:26:38.496Z,959.0177
2023-05-19T03:27:40.244Z,959.0192
2023-05-19T03:28:41.972Z,959.0285
2023-05-19T03:29:43.688Z,959.0247
2023-05-19T03:30:45.405Z,959.0200
2023-05-19T03:31:47.153Z,959.0077
2023-05-19T03:32:48.985Z,959.0077
2023-05-19T03:33:50.598Z,959.0046
2023-05-19T03:34:52.318Z,959.0100
2023-05-19T03:35:54.032Z,959.0162
2023-05-19T03:36:55.781Z,959.0254
2023-05-19T03:37:57.473Z,959.0323
2023-05-19T03:38:59.196Z,959.0339
2023-05-19T03:40:00.945Z,959.0546
2023-05-19T03:41:02.673Z,959.0654
2023-05-19T03:42:04.399Z,959.1000
2023-05-19T03:43:06.121Z,959.1254
2023-05-19T03:44:07.855Z,959.1523
2023-05-19T03:45:09.561Z,959.1777
2023-05-19T03:46:11.356Z,959.1900
2023-05-19T03:47:13.032Z,959.2115
2023-05-19T03:48:14.749Z,959.2246
2023-05-19T03:49:16.494Z,959.2330
2023-05-19T03:50:18.207Z,959.2292
2023-05-19T03:51:19.915Z,959.2261
2023-05-19T03:52:21.631Z,959.2184
2023-05-19T03:53:23.490Z,959.2108
2023-05-19T03:54:25.217Z,959.2023
2023-05-19T03:55:26.913Z,959.2023
2023-05-19T03:56:28.670Z,959.2031
2023-05-19T03:57:30.380Z,959.2031
2023-05-19T03:58:32.077Z,959.2023
2023-05-19T03:59:33.831Z,959.2085
2023-05-19T04:00:35.773Z,959.2085
2023-05-19T04:01:37.296Z,959.2062
2023-05-19T04:02:39.098Z,959.2077
2023-05-19T04:03:40.809Z,959.2100
2023-05-19T04:04:42.512Z,959.2039
2023-05-19T04:05:44.216Z,959.2069
2023-05-19T04:06:45.930Z,959.2161
2023-05-19T04:07:47.626Z,959.2285
2023-05-19T04:08:49.357Z,959.2392
2023-05-19T04:09:51.088Z,959.2385
2023-05-19T04:10:52.833Z,959.2392
2023-05-19T04:11:54.569Z,959.2523
2023-05-19T04:12:56.264Z,959.2546
2023-05-19T04:13:58.014Z,959.2554
2023-05-19T04:14:59.758Z,959.2538
2023-05-19T04:16:01.481Z,959.2446
2023-05-19T04:17:03.198Z,959.2430
2023-05-19T04:18:04.944Z,959.2430
2023-05-19T04:19:06.719Z,959.2515
2023-05-19T04:20:08.371Z,959.2477
2023-05-19T04:21:10.113Z,959.2577
2023-05-19T04:22:11.810Z,959.2715
2023-05-19T04:23:13.548Z,959.2823
2023-05-19T04:24:15.263Z,959.2953
2023-05-19T04:25:17.058Z,959.3038
2023-05-19T04:26:18.719Z,959.3092
2023-05-19T04:27:20.467Z,959.3146
2023-05-19T04:28:22.184Z,959.3223
2023-05-19T04:29:23.917Z,959.3162
2023-05-19T04:30:25.634Z,959.3192
2023-05-19T04:31:27.353Z,959.3138
2023-05-19T04:32:29.123Z,959.3069
2023-05-19T04:33:30.822Z,959.3108
2023-05-19T04:34:32.559Z,959.3077
2023-05-19T04:35:34.292Z,959.3062
2023-05-19T04:36:35.973Z,959.3154
2023-05-19T04:37:37.694Z,959.3300
2023-05-19T04:38:39.427Z,959.3446
2023-05-19T04:39:41.180Z,959.3484
2023-05-19T04:40:42.911Z,959.3623
2023-05-19T04:41:44.623Z,959.3754
2023-05-19T04:42:46.327Z,959.3923
2023-05-19T04:43:48.080Z,959.3962
2023-05-19T04:44:49.782Z,959.4046
2023-05-19T04:45:51.553Z,959.4069
2023-05-19T04:46:53.306Z,959.4100
2023-05-19T04:47:55.009Z,959.4131
2023-05-19T04:48:56.725Z,959.4215
2023-05-19T04:49:58.411Z,959.4238
2023-05-19T04:51:00.154Z,959.4246
2023-05-19T04:52:01.868Z,959.4254
2023-05-19T04:53:03.622Z,959.4254
2023-05-19T04:54:05.338Z,959.4392
2023-05-19T04:55:07.049Z,959.4515
2023-05-19T04:56:08.783Z,959.4692
2023-05-19T04:57:10.520Z,959.4753
2023-05-19T04:58:12.253Z,959.4777
2023-05-19T04:59:13.972Z,959.4854
2023-05-19T05:00:15.699Z,959.4908
2023-05-19T05:01:17.444Z,959.4923
2023-05-19T05:02:19.224Z,959.4877
2023-05-19T05:03:20.972Z,959.4969
2023-05-19T05:04:22.657Z,959.4962
2023-05-19T05:05:24.337Z,959.5008
2023-05-19T05:06:26.037Z,959.5046
2023-05-19T05:07:28.548Z,959.5131
2023-05-19T05:08:29.483Z,959.5170
2023-05-19T05:09:31.224Z,959.5162
2023-05-19T05:10:33.108Z,959.5139
2023-05-19T05:11:34.682Z,959.5200
2023-05-19T05:12:36.410Z,959.5154
2023-05-19T05:13:38.130Z,959.5070
2023-05-19T05:14:39.828Z,959.4962
2023-05-19T05:15:41.555Z,959.4954
2023-05-19T05:16:43.491Z,959.4915
2023-05-19T05:17:45.056Z,959.4830
2023-05-19T05:18:46.770Z,959.4769
2023-05-19T05:19:48.487Z,959.4861
2023-05-19T05:20:50.214Z,959.4900
2023-05-19T05:21:52.328Z,959.4861
2023-05-19T05:22:53.646Z,959.4830
2023-05-19T05:23:55.373Z,959.4892
2023-05-19T05:24:57.113Z,959.4854
2023-05-19T05:25:58.841Z,959.4846
2023-05-19T05:27:00.602Z,959.4761
2023-05-19T05:28:02.270Z,959.4646
2023-05-19T05:29:03.998Z,959.4615
2023-05-19T05:30:05.714Z,959.4531
2023-05-19T05:31:07.518Z,959.4470
2023-05-19T05:32:09.256Z,959.4392
2023-05-19T05:33:10.955Z,959.4354
2023-05-19T05:34:12.619Z,959.4246
2023-05-19T05:35:14.350Z,959.4192
2023-05-19T05:36:16.096Z,959.4046
2023-05-19T05:37:17.835Z,959.4077
2023-05-19T05:38:19.547Z,959.4084
2023-05-19T05:39:21.266Z,959.4161
2023-05-19T05:40:22.978Z,959.4123
2023-05-19T05:41:24.725Z,959.4177
2023-05-19T05:42:28.932Z,959.4269
2023-05-19T05:43:28.172Z,959.4223
2023-05-19T05:44:29.894Z,959.4238
2023-05-19T05:45:31.913Z,959.4254
2023-05-19T05:46:33.478Z,959.4346
2023-05-19T05:47:35.096Z,959.4415
2023-05-19T05:48:36.793Z,959.4470
2023-05-19T05:49:38.536Z,959.4577
2023-05-19T05:50:40.240Z,959.4531
2023-05-19T05:51:46.417Z,959.4400
2023-05-19T05:52:43.706Z,959.4446
2023-05-19T05:53:45.441Z,959.4431
2023-05-19T05:54:47.144Z,959.4330
2023-05-19T05:55:48.867Z,959.4254
2023-05-19T05:56:50.600Z,959.4254
2023-05-19T05:57:52.350Z,959.4323
2023-05-19T05:58:54.070Z,959.4362
2023-05-19T05:59:55.789Z,959.4569
2023-05-19T06:00:57.500Z,959.4715
2023-05-19T06:01:59.228Z,959.4746
2023-05-19T06:03:01.134Z,959.4708
2023-05-19T06:04:02.706Z,959.4654
2023-05-19T06:05:04.461Z,959.4569
2023-05-19T06:06:06.148Z,959.4608
2023-05-19T06:07:07.889Z,959.4700
2023-05-19T06:08:09.630Z,959.4623
2023-05-19T06:09:11.303Z,959.4808
2023-05-19T06:10:13.051Z,959.4915
2023-05-19T06:11:14.803Z,959.4946
2023-05-19T06:12:16.515Z,959.4892
2023-05-19T06:13:18.261Z,959.4823
2023-05-19T06:14:19.969Z,959.4792
2023-05-19T06:15:21.670Z,959.4684
2023-05-19T06:16:23.444Z,959.4362
2023-05-19T06:17:25.257Z,959.4423
2023-05-19T06:18:26.903Z,959.4523
2023-05-19T06:19:28.707Z,959.4639
2023-05-19T06:20:30.474Z,959.4915
2023-05-19T06:21:32.021Z,959.5062
2023-05-19T06:22:33.769Z,959.5000
2023-05-19T06:23:35.505Z,959.4908
2023-05-19T06:24:39.356Z,959.4869
2023-05-19T06:25:38.948Z,959.4792
2023-05-19T06:26:40.671Z,959.4677
2023-05-19T06:27:42.382Z,959.4623
2023-05-19T06:28:44.111Z,959.4600
2023-05-19T06:29:45.827Z,959.4654
2023-05-19T06:30:47.573Z,959.4608
2023-05-19T06:31:49.398Z,959.4539
2023-05-19T06:32:51.111Z,959.4515
2023-05-19T06:33:52.761Z,959.4577
2023-05-19T06:34:54.485Z,959.4815
2023-05-19T06:35:56.189Z,959.4954
2023-05-19T06:36:57.939Z,959.5208
2023-05-19T06:37:59.671Z,959.5469
2023-05-19T06:39:02.677Z,959.5530
2023-05-19T06:40:03.103Z,959.5546
2023-05-19T06:41:04.832Z,959.5530
2023-05-19T06:42:06.587Z,959.5446
2023-05-19T06:43:08.304Z,959.5323
2023-05-19T06:44:10.069Z,959.5323
2023-05-19T06:45:11.764Z,959.5346
2023-05-19T06:46:13.556Z,959.5308
2023-05-19T06:47:15.243Z,959.5515
2023-05-19T06:48:17.015Z,959.5638
2023-05-19T06:49:18.650Z,959.5670
2023-05-19T06:50:20.404Z,959.5877
2023-05-19T06:51:22.124Z,959.6169
2023-05-19T06:52:23.883Z,959.6323
2023-05-19T06:53:25.565Z,959.6346
2023-05-19T06:54:27.305Z,959.6385
2023-05-19T06:55:29.027Z,959.6323
2023-05-19T06:56:30.780Z,959.6254
2023-05-19T06:57:32.492Z,959.6085
2023-05-19T06:58:34.201Z,959.6038
2023-05-19T06:59:35.936Z,959.6100
2023-05-19T07:00:37.706Z,959.6177
2023-05-19T07:01:39.413Z,959.6354
2023-05-19T07:02:41.187Z,959.6492
2023-05-19T07:03:42.895Z,959.6631
2023-05-19T07:04:44.605Z,959.6523
2023-05-19T07:05:47.167Z,959.6492
2023-05-19T07:06:48.028Z,959.6346
2023-05-19T07:07:49.767Z,959.6392
2023-05-19T07:08:51.485Z,959.6592
2023-05-19T07:09:53.236Z,959.6769
2023-05-19T07:10:54.957Z,959.6608
2023-05-19T07:11:56.685Z,959.6546
2023-05-19T07:12:58.398Z,959.6569
2023-05-19T07:14:00.173Z,959.6631
2023-05-19T07:15:02.037Z,959.6738
2023-05-19T07:16:03.625Z,959.6915
2023-05-19T07:17:05.325Z,959.7008
2023-05-19T07:18:07.075Z,959.7023
2023-05-19T07:19:08.822Z,959.7108
2023-05-19T07:20:10.540Z,959.7077
2023-05-19T07:21:12.215Z,959.6846
2023-05-19T07:22:13.950Z,959.6792
2023-05-19T07:23:17.393Z,959.6730
2023-05-19T07:24:17.429Z,959.6708
2023-05-19T07:25:19.146Z,959.6600
2023-05-19T07:26:20.894Z,959.6408
2023-05-19T07:27:22.618Z,959.6331
2023-05-19T07:28:24.316Z,959.6223
2023-05-19T07:29:26.070Z,959.6085
2023-05-19T07:30:27.811Z,959.6100
2023-05-19T07:31:29.574Z,959.5762
2023-05-19T07:32:31.298Z,959.5508
2023-05-19T07:33:32.965Z,959.5277
2023-05-19T07:34:34.689Z,959.5162
2023-05-19T07:35:36.441Z,959.5323
2023-05-19T07:36:38.158Z,959.5538
2023-05-19T07:37:39.892Z,959.5677
2023-05-19T07:38:41.663Z,959.5777
2023-05-19T07:39:43.326Z,959.5839
2023-05-19T07:40:45.059Z,959.5946
2023-05-19T07:41:46.783Z,959.5931
2023-05-19T07:42:48.505Z,959.5931
2023-05-19T07:43:50.262Z,959.5869
2023-05-19T07:44:51.970Z,959.5785
2023-05-19T07:45:53.781Z,959.5777
2023-05-19T07:46:55.444Z,959.5839
2023-05-19T07:47:57.220Z,959.5754
2023-05-19T07:48:58.926Z,959.5654
2023-05-19T07:50:00.612Z,959.5708
2023-05-19T07:51:02.387Z,959.5638
2023-05-19T07:52:04.069Z,959.5777
2023-05-19T07:53:05.806Z,959.6016
2023-05-19T07:54:07.529Z,959.6169
2023-05-19T07:55:09.265Z,959.6346
2023-05-19T07:56:11.115Z,959.6346
2023-05-19T07:57:12.790Z,959.6354
2023-05-19T07:58:14.504Z,959.6462
2023-05-19T07:59:16.265Z,959.6423
2023-05-19T08:00:17.981Z,959.6539
2023-05-19T08:01:19.846Z,959.6508
2023-05-19T08:02:21.458Z,959.6638
2023-05-19T08:03:23.295Z,959.6539
2023-05-19T08:04:24.897Z,959.6400
2023-05-19T08:05:26.643Z,959.6323
2023-05-19T08:06:28.363Z,959.6262
2023-05-19T08:07:30.048Z,959.6031
2023-05-19T08:08:31.797Z,959.5946
2023-05-19T08:09:33.531Z,959.5770
2023-05-19T08:10:35.400Z,959.5662
2023-05-19T08:11:36.982Z,959.5446
2023-05-19T08:12:38.694Z,959.5247
2023-05-19T08:13:40.406Z,959.5308
2023-05-19T08:14:42.131Z,959.5385
2023-05-19T08:15:43.892Z,959.5346
2023-05-19T08:16:45.607Z,959.5377
2023-05-19T08:17:47.367Z,959.5361
2023-05-19T08:18:49.098Z,959.5331
2023-05-19T08:19:50.790Z,959.5339
2023-05-19T08:20:52.517Z,959.5162
2023-05-19T08:21:54.265Z,959.5208
2023-05-19T08:22:55.978Z,959.5100
2023-05-19T08:23:57.696Z,959.5062
2023-05-19T08:24:59.429Z,959.4985
2023-05-19T08:26:01.156Z,959.4869
2023-05-19T08:27:02.896Z,959.4623
2023-05-19T08:28:04.603Z,959.4400
2023-05-19T08:29:06.318Z,959.4261
2023-05-19T08:30:08.074Z,959.4123
2023-05-19T08:31:09.845Z,959.3915
2023-05-19T08:32:13.185Z,959.3908
2023-05-19T08:33:13.255Z,959.3762
2023-05-19T08:34:14.971Z,959.3654
2023-05-19T08:35:16.671Z,959.3646
2023-05-19T08:36:18.398Z,959.3630
2023-05-19T08:37:20.157Z,959.3608
2023-05-19T08:38:21.873Z,959.3715
2023-05-19T08:39:23.581Z,959.3546
2023-05-19T08:40:25.322Z,959.3347
2023-05-19T08:41:27.024Z,959.3277
2023-05-19T08:42:28.802Z,959.3239
2023-05-19T08:43:30.497Z,959.3362
2023-05-19T08:44:32.221Z,959.3300
2023-05-19T08:45:34.124Z,959.3285
2023-05-19T08:46:35.833Z,959.3315
2023-05-19T08:47:37.433Z,959.3215
2023-05-19T08:48:39.094Z,959.3062
2023-05-19T08:49:40.842Z,959.3077
2023-05-19T08:50:42.559Z,959.2961
2023-05-19T08:51:44.302Z,959.3023
2023-05-19T08:52:49.539Z,959.3030
2023-05-19T08:53:47.742Z,959.3215
2023-05-19T08:54:49.461Z,959.3170
2023-05-19T08:55:51.192Z,959.3170
2023-05-19T08:56:52.888Z,959.3270
2023-05-19T08:57:54.642Z,959.3331
2023-05-19T08:58:56.364Z,959.3262
2023-05-19T08:59:58.076Z,959.3215
2023-05-19T09:00:59.876Z,959.2916
2023-05-19T09:02:01.513Z,959.2592
2023-05-19T09:04:05.023Z,959.2492
2023-05-19T09:05:06.715Z,959.2446
2023-05-19T09:06:08.557Z,959.2600
2023-05-19T09:07:10.135Z,959.2708
2023-05-19T09:08:11.870Z,959.2916
2023-05-19T09:09:13.620Z,959.3185
2023-05-19T09:10:15.335Z,959.3339
2023-05-19T09:11:17.039Z,959.3416
2023-05-19T09:12:18.781Z,959.3408
2023-05-19T09:13:20.519Z,959.3269
2023-05-19T09:14:22.234Z,959.3223
2023-05-19T09:15:23.945Z,959.3038
2023-05-19T09:16:27.811Z,959.2885
2023-05-19T09:17:27.412Z,959.2769
2023-05-19T09:18:29.189Z,959.2816
2023-05-19T09:19:30.989Z,959.2946
2023-05-19T09:20:32.586Z,959.3030
2023-05-19T09:21:34.302Z,959.2938
2023-05-19T09:22:36.048Z,959.3054
2023-05-19T09:23:37.785Z,959.3069
2023-05-19T09:24:39.481Z,959.2923
2023-05-19T09:25:41.230Z,959.3077
2023-05-19T09:26:42.974Z,959.3115
2023-05-19T09:27:44.691Z,959.3323
2023-05-19T09:28:46.402Z,959.3461
2023-05-19T09:29:48.119Z,959.3484
2023-05-19T09:30:49.849Z,959.3392
2023-05-19T09:31:51.788Z,959.3223
2023-05-19T09:32:53.380Z,959.3062
2023-05-19T09:33:55.091Z,959.2985
2023-05-19T09:34:56.753Z,959.2938
2023-05-19T09:35:58.501Z,959.2823
2023-05-19T09:37:00.230Z,959.2723
2023-05-19T09:38:01.986Z,959.2662
2023-05-19T09:39:03.701Z,959.2685
2023-05-19T09:40:05.399Z,959.2715
2023-05-19T09:41:07.188Z,959.2923
2023-05-19T09:42:08.853Z,959.3054
2023-05-19T09:43:10.584Z,959.3185
2023-05-19T09:44:12.323Z,959.3192
2023-05-19T09:45:14.069Z,959.3315
2023-05-19T09:46:15.838Z,959.3239
2023-05-19T09:47:17.505Z,959.3377
2023-05-19T09:48:19.217Z,959.3377
2023-05-19T09:49:20.992Z,959.3347
2023-05-19T09:50:22.691Z,959.3347
2023-05-19T09:51:24.422Z,959.3208
2023-05-19T09:52:26.154Z,959.3170
2023-05-19T09:53:27.865Z,959.3254
2023-05-19T09:54:29.722Z,959.3239
2023-05-19T09:55:31.449Z,959.3023
2023-05-19T09:56:33.061Z,959.3000
2023-05-19T09:57:34.801Z,959.3146
2023-05-19T09:58:36.771Z,959.3162
2023-05-19T09:59:38.264Z,959.3369
2023-05-19T10:00:39.986Z,959.3508
2023-05-19T10:01:41.722Z,959.3439
2023-05-19T10:02:43.435Z,959.3461
2023-05-19T10:03:45.164Z,959.3354
2023-05-19T10:04:47.327Z,959.3254
2023-05-19T10:05:48.643Z,959.3038
2023-05-19T10:06:50.329Z,959.2816
2023-05-19T10:07:52.060Z,959.2762
2023-05-19T10:08:53.789Z,959.2823
2023-05-19T10:09:56.604Z,959.2777
2023-05-19T10:10:57.264Z,959.2754
2023-05-19T10:11:59.004Z,959.2500
2023-05-19T10:13:00.694Z,959.2423
2023-05-19T10:14:02.424Z,959.2430
2023-05-19T10:15:04.183Z,959.2500
2023-05-19T10:16:05.953Z,959.2492
2023-05-19T10:17:07.765Z,959.2462
2023-05-19T10:18:09.389Z,959.2377
2023-05-19T10:19:11.100Z,959.2454
2023-05-19T10:20:12.844Z,959.2423
2023-05-19T10:21:14.506Z,959.2392
2023-05-19T10:22:16.230Z,959.2415
2023-05-19T10:23:17.989Z,959.2369
2023-05-19T10:24:19.702Z,959.2454
2023-05-19T10:25:21.454Z,959.2423
2023-05-19T10:26:23.135Z,959.2408
2023-05-19T10:27:24.874Z,959.2554
2023-05-19T10:28:26.642Z,959.2430
2023-05-19T10:29:28.383Z,959.2285
2023-05-19T10:30:30.092Z,959.2184
2023-05-19T10:31:31.860Z,959.2069
2023-05-19T10:32:33.622Z,959.2062
2023-05-19T10:33:35.257Z,959.2100
2023-05-19T10:34:36.968Z,959.1915
2023-05-19T10:35:38.917Z,959.1723
2023-05-19T10:36:40.406Z,959.1653
2023-05-19T10:37:42.156Z,959.1677
2023-05-19T10:38:43.877Z,959.1592
2023-05-19T10:39:45.596Z,959.1669
2023-05-19T10:40:47.334Z,959.1447
2023-05-19T10:41:49.038Z,959.1400
2023-05-19T10:42:50.778Z,959.1415
2023-05-19T10:43:52.501Z,959.1370
2023-05-19T10:44:54.229Z,959.1462
2023-05-19T10:45:55.936Z,959.1423
2023-05-19T10:46:57.714Z,959.1400
2023-05-19T10:47:59.495Z,959.1423
2023-05-19T10:49:01.137Z,959.1339
2023-05-19T10:50:02.872Z,959.1292
2023-05-19T10:51:04.607Z,959.1292
2023-05-19T10:52:06.303Z,959.1370
2023-05-19T10:53:08.036Z,959.1447
2023-05-19T10:54:10.992Z,959.1323
2023-05-19T10:55:11.504Z,959.1270
2023-05-19T10:56:13.235Z,959.1308
2023-05-19T10:57:14.919Z,959.1377
2023-05-19T10:58:16.656Z,959.1385
2023-05-19T10:59:18.376Z,959.1392
2023-05-19T11:00:20.123Z,959.1447
2023-05-19T11:01:21.866Z,959.1469
2023-05-19T11:02:23.640Z,959.1638
2023-05-19T11:03:25.262Z,959.1808
2023-05-19T11:04:27.163Z,959.1885
2023-05-19T11:05:28.729Z,959.1846
2023-05-19T11:06:30.486Z,959.1815
2023-05-19T11:07:32.203Z,959.1815
2023-05-19T11:08:33.926Z,959.1715
2023-05-19T11:09:40.275Z,959.1439
2023-05-19T11:12:38.933Z,959.1183
2023-05-19T11:13:40.575Z,959.1223
2023-05-19T11:14:42.276Z,959.1192
2023-05-19T11:15:44.081Z,959.1208
2023-05-19T11:16:46.723Z,959.1053
2023-05-19T11:17:47.526Z,959.1069
2023-05-19T11:18:49.253Z,959.0869
2023-05-19T11:19:50.928Z,959.0869
2023-05-19T11:20:52.757Z,959.0739
2023-05-19T11:21:54.401Z,959.0615
2023-05-19T11:22:56.192Z,959.0515
2023-05-19T11:23:57.963Z,959.0361
2023-05-19T11:24:59.565Z,959.0215
2023-05-19T11:26:01.293Z,959.0062
2023-05-19T11:27:03.133Z,958.9962
2023-05-19T11:28:04.779Z,958.9969
2023-05-19T11:29:06.474Z,959.0123
2023-05-19T11:30:08.254Z,959.0247
2023-05-19T11:31:09.953Z,959.0316
2023-05-19T11:32:11.755Z,959.0385
2023-05-19T11:33:13.483Z,959.0546
2023-05-19T11:34:15.112Z,959.0562
2023-05-19T11:35:16.842Z,959.0515
2023-05-19T11:36:18.612Z,959.0285
2023-05-19T11:37:20.302Z,959.0247
2023-05-19T11:38:22.130Z,959.0170
2023-05-19T11:39:23.782Z,959.0115
2023-05-19T11:40:25.520Z,959.0015
2023-05-19T11:41:27.243Z,958.9838
2023-05-19T11:42:28.966Z,958.9631
2023-05-19T11:43:30.712Z,958.9454
2023-05-19T11:44:32.522Z,958.9346
2023-05-19T11:45:34.416Z,958.9238
2023-05-19T11:46:35.969Z,958.9123
2023-05-19T11:47:50.852Z,958.8947
2023-05-19T11:48:39.368Z,958.8915
2023-05-19T11:49:41.053Z,958.8762
2023-05-19T11:50:42.856Z,958.8484
2023-05-19T11:51:44.500Z,958.8431
2023-05-19T11:52:46.252Z,958.8300
2023-05-19T11:53:47.980Z,958.8369
2023-05-19T11:54:49.716Z,958.8315
2023-05-19T11:55:52.024Z,958.8454
2023-05-19T11:56:53.258Z,958.8477
2023-05-19T11:58:02.768Z,958.8461
2023-05-19T11:58:56.647Z,958.8592
2023-05-19T11:59:58.376Z,958.8577
2023-05-19T12:01:00.121Z,958.8523
2023-05-19T12:02:01.808Z,958.8585
2023-05-19T12:03:03.674Z,958.8546
2023-05-19T12:04:05.413Z,958.8531
2023-05-19T12:05:07.057Z,958.8608
2023-05-19T12:06:08.755Z,958.8608
2023-05-19T12:07:10.470Z,958.8700
2023-05-19T12:08:12.277Z,958.8777